Time,TemperatureF,DewpointF,PressureIn,WindDirection,WindDirectionDegrees,WindSpeedMPH,WindSpeedGustMPH,Humidity,HourlyPrecipIn,Conditions,Clouds,dailyrainin,SoftwareType,DateUTC
2013-03-18 00:00:00,62.7,60.0,30.03,East,94,1.0,2.0,91,0.00,,,0.00,WeatherCatV1.02B3,2013-03-18 04:00:00,
2013-03-18 00:05:00,62.7,60.0,30.03,East,94,0.0,0.0,91,0.00,,,0.00,WeatherCatV1.02B3,2013-03-18 04:05:00,
2013-03-18 00:10:00,62.6,59.9,30.03,East,94,0.0,0.0,91,0.00,,,0.00,WeatherCatV1.02B3,2013-03-18 04:10:00,
2013-03-18 00:11:00,62.6,59.9,30.03,East,94,0.0,0.0,91,0.00,,,0.00,WeatherCatV1.02B3,2013-03-18 04:11:00,
2013-03-18 00:16:00,62.5,59.8,30.03,East,94,0.0,0.0,91,0.00,,,0.00,WeatherCatV1.02B3,2013-03-18 04:16:00,
2013-03-18 00:21:00,62.5,59.8,30.03,East,94,0.0,0.0,91,0.00,,,0.00,WeatherCatV1.02B3,2013-03-18 04:21:00,
2013-03-18 00:26:00,62.5,59.8,30.03,East,94,0.0,0.0,91,0.00,,,0.00,WeatherCatV1.02B3,2013-03-18 04:26:00,
2013-03-18 00:31:00,62.5,59.8,30.04,East,94,0.0,0.0,91,0.00,,,0.00,WeatherCatV1.02B3,2013-03-18 04:31:00,
2013-03-18 00:36:00,62.4,59.7,30.03,East,94,0.0,0.0,91,0.00,,,0.00,WeatherCatV1.02B3,2013-03-18 04:36:00,
2013-03-18 00:41:00,62.4,59.7,30.03,East,94,0.0,0.0,91,0.00,,,0.00,WeatherCatV1.02B3,2013-03-18 04:41:00,
2013-03-18 00:46:00,62.3,59.6,30.03,East,94,0.0,0.0,91,0.00,,,0.00,WeatherCatV1.02B3,2013-03-18 04:46:00,
2013-03-18 00:51:00,62.3,59.6,30.02,East,94,0.0,0.0,91,0.00,,,0.00,WeatherCatV1.02B3,2013-03-18 04:51:00,
2013-03-18 00:56:00,62.2,59.5,30.02,East,94,0.0,0.0,91,0.00,,,0.00,WeatherCatV1.02B3,2013-03-18 04:56:00,
2013-03-18 01:01:00,62.0,59.3,30.02,East,94,0.0,0.0,91,0.00,,,0.00,WeatherCatV1.02B3,2013-03-18 05:01:00,
2013-03-18 01:06:00,61.9,59.2,30.02,East,94,0.0,0.0,91,0.00,,,0.00,WeatherCatV1.02B3,2013-03-18 05:06:00,
2013-03-18 01:11:00,61.9,59.2,30.02,East,94,0.0,0.0,91,0.00,,,0.00,WeatherCatV1.02B3,2013-03-18 05:11:00,
2013-03-18 01:16:00,61.8,59.1,30.02,East,94,0.0,0.0,91,0.00,,,0.00,WeatherCatV1.02B3,2013-03-18 05:16:00,
2013-03-18 01:21:00,61.7,59.0,30.02,East,94,0.0,0.0,91,0.00,,,0.00,WeatherCatV1.02B3,2013-03-18 05:21:00,
2013-03-18 01:26:00,61.7,59.0,30.02,East,87,0.0,0.0,91,0.00,,,0.00,WeatherCatV1.02B3,2013-03-18 05:26:00,
2013-03-18 01:31:00,61.7,59.0,30.01,East,87,0.0,1.0,91,0.00,,,0.00,WeatherCatV1.02B3,2013-03-18 05:31:00,
2013-03-18 01:36:00,61.7,59.0,30.01,East,87,0.0,0.0,91,0.00,,,0.00,WeatherCatV1.02B3,2013-03-18 05:36:00,
2013-03-18 01:41:00,61.7,59.0,30.01,East,87,0.0,0.0,91,0.00,,,0.00,WeatherCatV1.02B3,2013-03-18 05:41:00,
2013-03-18 01:46:00,61.7,59.0,30.01,East,87,0.0,0.0,91,0.00,,,0.00,WeatherCatV1.02B3,2013-03-18 05:46:00,
2013-03-18 01:51:00,61.8,58.8,30.01,ENE,75,2.0,2.0,90,0.00,,,0.00,WeatherCatV1.02B3,2013-03-18 05:51:00,
2013-03-18 01:56:00,61.8,58.8,30.01,ENE,69,0.0,0.0,90,0.00,,,0.00,WeatherCatV1.02B3,2013-03-18 05:56:00,
2013-03-18 02:01:00,61.7,58.7,30.01,ENE,69,0.0,0.0,90,0.00,,,0.00,WeatherCatV1.02B3,2013-03-18 06:01:00,
2013-03-18 02:06:00,61.7,58.7,30.00,ENE,69,0.0,0.0,90,0.00,,,0.00,WeatherCatV1.02B3,2013-03-18 06:06:00,
2013-03-18 02:11:00,61.6,58.6,30.00,ENE,69,0.0,0.0,90,0.00,,,0.00,WeatherCatV1.02B3,2013-03-18 06:11:00,
2013-03-18 02:16:00,61.6,58.6,30.01,ESE,118,0.0,0.0,90,0.00,,,0.00,WeatherCatV1.02B3,2013-03-18 06:16:00,
2013-03-18 02:21:00,61.6,58.9,30.01,ESE,118,0.0,0.0,91,0.00,,,0.00,WeatherCatV1.02B3,2013-03-18 06:21:00,
2013-03-18 02:26:00,61.4,58.4,30.02,ESE,118,0.0,0.0,90,0.00,,,0.00,WeatherCatV1.02B3,2013-03-18 06:26:00,
2013-03-18 02:31:00,61.1,58.1,30.02,ESE,118,0.0,0.0,90,0.00,,,0.00,WeatherCatV1.02B3,2013-03-18 06:31:00,
2013-03-18 02:36:00,60.7,58.1,30.02,ESE,118,0.0,0.0,91,0.00,,,0.00,WeatherCatV1.02B3,2013-03-18 06:36:00,
2013-03-18 02:41:00,60.4,57.8,30.02,ESE,118,0.0,0.0,91,0.00,,,0.00,WeatherCatV1.02B3,2013-03-18 06:41:00,
2013-03-18 02:46:00,60.2,57.9,30.02,ESE,118,0.0,0.0,92,0.00,,,0.00,WeatherCatV1.02B3,2013-03-18 06:46:00,
2013-03-18 02:51:00,60.0,57.7,30.02,ESE,118,0.0,0.0,92,0.00,,,0.00,WeatherCatV1.02B3,2013-03-18 06:51:00,
2013-03-18 02:56:00,59.7,57.4,30.02,ESE,118,0.0,0.0,92,0.00,,,0.00,WeatherCatV1.02B3,2013-03-18 06:56:00,
2013-03-18 03:01:00,59.6,57.6,30.02,ESE,118,0.0,0.0,93,0.00,,,0.00,WeatherCatV1.02B3,2013-03-18 07:01:00,
2013-03-18 03:06:00,59.5,57.8,30.02,ESE,118,0.0,0.0,94,0.00,,,0.00,WeatherCatV1.02B3,2013-03-18 07:06:00,
2013-03-18 03:11:00,59.4,57.7,30.02,ESE,118,0.0,0.0,94,0.00,,,0.00,WeatherCatV1.02B3,2013-03-18 07:11:00,
2013-03-18 03:16:00,59.4,57.7,30.02,ESE,118,0.0,0.0,94,0.00,,,0.00,WeatherCatV1.02B3,2013-03-18 07:16:00,
2013-03-18 03:21:00,59.3,57.6,30.01,ESE,118,0.0,0.0,94,0.00,,,0.00,WeatherCatV1.02B3,2013-03-18 07:21:00,
2013-03-18 03:26:00,59.3,57.9,30.01,ESE,118,0.0,0.0,95,0.00,,,0.00,WeatherCatV1.02B3,2013-03-18 07:26:00,
2013-03-18 03:31:00,59.3,57.9,30.01,ESE,118,0.0,0.0,95,0.00,,,0.00,WeatherCatV1.02B3,2013-03-18 07:31:00,
2013-03-18 03:36:00,59.4,58.0,30.01,ESE,118,0.0,0.0,95,0.00,,,0.00,WeatherCatV1.02B3,2013-03-18 07:36:00,
2013-03-18 03:41:00,59.4,58.0,30.01,ESE,118,0.0,0.0,95,0.00,,,0.00,WeatherCatV1.02B3,2013-03-18 07:41:00,
2013-03-18 03:46:00,59.3,57.9,30.01,ESE,118,0.0,0.0,95,0.00,,,0.00,WeatherCatV1.02B3,2013-03-18 07:46:00,
2013-03-18 03:51:00,59.2,58.1,30.01,ESE,118,0.0,0.0,96,0.00,,,0.00,WeatherCatV1.02B3,2013-03-18 07:51:00,
2013-03-18 03:56:00,59.1,58.0,30.01,ESE,118,0.0,0.0,96,0.00,,,0.00,WeatherCatV1.02B3,2013-03-18 07:56:00,
2013-03-18 04:01:00,58.9,57.8,30.01,ESE,118,0.0,0.0,96,0.00,,,0.00,WeatherCatV1.02B3,2013-03-18 08:01:00,
2013-03-18 04:06:00,58.8,57.7,30.01,ESE,118,0.0,0.0,96,0.00,,,0.00,WeatherCatV1.02B3,2013-03-18 08:06:00,
2013-03-18 04:11:00,58.7,57.6,30.00,ESE,118,0.0,0.0,96,0.00,,,0.00,WeatherCatV1.02B3,2013-03-18 08:11:00,
2013-03-18 04:16:00,58.6,57.5,30.00,ESE,118,0.0,0.0,96,0.00,,,0.00,WeatherCatV1.02B3,2013-03-18 08:16:00,
2013-03-18 04:21:00,58.5,57.4,30.00,ESE,118,0.0,0.0,96,0.00,,,0.00,WeatherCatV1.02B3,2013-03-18 08:21:00,
2013-03-18 04:26:00,58.5,57.6,30.00,ESE,118,0.0,0.0,97,0.00,,,0.00,WeatherCatV1.02B3,2013-03-18 08:26:00,
2013-03-18 04:31:00,58.5,57.6,30.01,ESE,118,0.0,0.0,97,0.00,,,0.00,WeatherCatV1.02B3,2013-03-18 08:31:00,
2013-03-18 04:36:00,58.5,57.6,30.01,ESE,118,0.0,0.0,97,0.00,,,0.00,WeatherCatV1.02B3,2013-03-18 08:36:00,
2013-03-18 04:41:00,58.5,57.6,30.01,ESE,118,0.0,0.0,97,0.00,,,0.00,WeatherCatV1.02B3,2013-03-18 08:41:00,
2013-03-18 04:46:00,58.4,57.5,30.00,ESE,118,0.0,0.0,97,0.00,,,0.00,WeatherCatV1.02B3,2013-03-18 08:46:00,
2013-03-18 04:51:00,58.4,57.5,30.01,ESE,118,0.0,0.0,97,0.00,,,0.00,WeatherCatV1.02B3,2013-03-18 08:51:00,
2013-03-18 04:56:00,58.4,57.5,30.01,ESE,118,0.0,0.0,97,0.00,,,0.00,WeatherCatV1.02B3,2013-03-18 08:56:00,
2013-03-18 05:01:00,58.3,57.5,30.01,ESE,118,0.0,0.0,97,0.00,,,0.00,WeatherCatV1.02B3,2013-03-18 09:01:00,
2013-03-18 05:06:00,58.2,57.4,30.01,ESE,118,0.0,0.0,97,0.00,,,0.00,WeatherCatV1.02B3,2013-03-18 09:06:00,
2013-03-18 05:11:00,58.2,57.4,30.01,ESE,118,0.0,0.0,97,0.00,,,0.00,WeatherCatV1.02B3,2013-03-18 09:11:00,
2013-03-18 05:16:00,58.2,57.4,30.01,ESE,118,0.0,0.0,97,0.00,,,0.00,WeatherCatV1.02B3,2013-03-18 09:16:00,
2013-03-18 05:21:00,58.2,57.6,30.01,ESE,118,0.0,0.0,98,0.00,,,0.00,WeatherCatV1.02B3,2013-03-18 09:21:00,
2013-03-18 05:26:00,58.0,57.2,30.01,ESE,118,0.0,0.0,97,0.00,,,0.00,WeatherCatV1.02B3,2013-03-18 09:26:00,
2013-03-18 05:31:00,57.9,57.1,30.01,ESE,118,0.0,0.0,97,0.00,,,0.00,WeatherCatV1.02B3,2013-03-18 09:31:00,
2013-03-18 05:36:00,57.9,57.3,30.01,ESE,118,0.0,0.0,98,0.00,,,0.00,WeatherCatV1.02B3,2013-03-18 09:36:00,
2013-03-18 05:41:00,58.0,57.4,30.01,ESE,118,0.0,0.0,98,0.00,,,0.00,WeatherCatV1.02B3,2013-03-18 09:41:00,
2013-03-18 05:46:00,57.9,57.3,30.01,ESE,118,0.0,0.0,98,0.00,,,0.00,WeatherCatV1.02B3,2013-03-18 09:46:00,
2013-03-18 05:51:00,57.8,57.2,30.01,ESE,118,0.0,0.0,98,0.00,,,0.00,WeatherCatV1.02B3,2013-03-18 09:51:00,
2013-03-18 05:56:00,57.8,57.2,30.01,ESE,118,0.0,0.0,98,0.00,,,0.00,WeatherCatV1.02B3,2013-03-18 09:56:00,
2013-03-18 06:01:00,57.9,57.3,30.01,ESE,118,0.0,0.0,98,0.00,,,0.00,WeatherCatV1.02B3,2013-03-18 10:01:00,
2013-03-18 06:06:00,57.9,57.3,30.01,ESE,118,0.0,0.0,98,0.00,,,0.00,WeatherCatV1.02B3,2013-03-18 10:06:00,
2013-03-18 06:11:00,57.9,57.3,30.02,ESE,118,0.0,0.0,98,0.00,,,0.00,WeatherCatV1.02B3,2013-03-18 10:11:00,
2013-03-18 06:16:00,57.9,57.3,30.01,ESE,118,0.0,0.0,98,0.00,,,0.00,WeatherCatV1.02B3,2013-03-18 10:16:00,
2013-03-18 06:21:00,57.7,57.1,30.02,ESE,118,0.0,0.0,98,0.00,,,0.00,WeatherCatV1.02B3,2013-03-18 10:21:00,
2013-03-18 06:26:00,57.5,56.9,30.02,ESE,118,0.0,0.0,98,0.00,,,0.00,WeatherCatV1.02B3,2013-03-18 10:26:00,
2013-03-18 06:31:00,57.5,56.9,30.02,ESE,118,0.0,0.0,98,0.00,,,0.00,WeatherCatV1.02B3,2013-03-18 10:31:00,
2013-03-18 06:36:00,57.5,56.9,30.02,ESE,118,0.0,0.0,98,0.00,,,0.00,WeatherCatV1.02B3,2013-03-18 10:36:00,
2013-03-18 06:41:00,57.5,56.9,30.02,ESE,118,0.0,0.0,98,0.00,,,0.00,WeatherCatV1.02B3,2013-03-18 10:41:00,
2013-03-18 06:46:00,57.5,56.9,30.03,ESE,118,0.0,0.0,98,0.00,,,0.00,WeatherCatV1.02B3,2013-03-18 10:46:00,
2013-03-18 06:51:00,57.7,57.1,30.02,ESE,118,0.0,0.0,98,0.00,,,0.00,WeatherCatV1.02B3,2013-03-18 10:51:00,
2013-03-18 06:56:00,57.8,57.2,30.03,ESE,118,0.0,0.0,98,0.00,,,0.00,WeatherCatV1.02B3,2013-03-18 10:56:00,
2013-03-18 07:01:00,57.8,57.2,30.03,ESE,118,0.0,0.0,98,0.00,,,0.00,WeatherCatV1.02B3,2013-03-18 11:01:00,
2013-03-18 07:06:00,57.9,57.3,30.03,ESE,118,0.0,0.0,98,0.00,,,0.00,WeatherCatV1.02B3,2013-03-18 11:06:00,
2013-03-18 07:11:00,58.0,57.4,30.03,ESE,118,0.0,0.0,98,0.00,,,0.00,WeatherCatV1.02B3,2013-03-18 11:11:00,
2013-03-18 07:16:00,58.1,57.5,30.03,ESE,118,0.0,0.0,98,0.00,,,0.00,WeatherCatV1.02B3,2013-03-18 11:16:00,
2013-03-18 07:21:00,58.2,57.6,30.03,ESE,118,0.0,0.0,98,0.00,,,0.00,WeatherCatV1.02B3,2013-03-18 11:21:00,
2013-03-18 07:26:00,58.3,57.7,30.03,ESE,118,0.0,0.0,98,0.00,,,0.00,WeatherCatV1.02B3,2013-03-18 11:26:00,
2013-03-18 07:31:00,58.4,57.8,30.03,ESE,118,0.0,0.0,98,0.00,,,0.00,WeatherCatV1.02B3,2013-03-18 11:31:00,
2013-03-18 07:36:00,58.6,58.0,30.02,ESE,118,0.0,0.0,98,0.00,,,0.00,WeatherCatV1.02B3,2013-03-18 11:36:00,
2013-03-18 07:41:00,58.7,58.1,30.02,ESE,118,0.0,0.0,98,0.00,,,0.00,WeatherCatV1.02B3,2013-03-18 11:41:00,
2013-03-18 07:46:00,59.1,58.8,30.02,ESE,118,0.0,0.0,99,0.00,,,0.00,WeatherCatV1.02B3,2013-03-18 11:46:00,
2013-03-18 07:51:00,59.3,58.7,30.02,ESE,118,0.0,1.0,98,0.00,,,0.00,WeatherCatV1.02B3,2013-03-18 11:51:00,
2013-03-18 07:56:00,59.5,58.9,30.02,ESE,118,0.0,1.0,98,0.00,,,0.00,WeatherCatV1.02B3,2013-03-18 11:56:00,
2013-03-18 08:01:00,59.8,59.2,30.02,NNE,15,0.0,1.0,98,0.00,,,0.00,WeatherCatV1.02B3,2013-03-18 12:01:00,
2013-03-18 08:06:00,60.2,59.3,30.02,North,10,0.0,2.0,97,0.00,,,0.00,WeatherCatV1.02B3,2013-03-18 12:06:00,
2013-03-18 08:11:00,60.5,59.4,30.02,North,10,0.0,1.0,96,0.00,,,0.00,WeatherCatV1.02B3,2013-03-18 12:11:00,
2013-03-18 08:16:00,60.6,59.2,30.02,NNW,335,0.0,0.0,95,0.00,,,0.00,WeatherCatV1.02B3,2013-03-18 12:16:00,
2013-03-18 08:21:00,60.7,59.3,30.02,NNW,341,0.0,1.0,95,0.00,,,0.00,WeatherCatV1.02B3,2013-03-18 12:21:00,
2013-03-18 08:26:00,60.9,59.5,30.02,NNW,341,0.0,1.0,95,0.00,,,0.00,WeatherCatV1.02B3,2013-03-18 12:26:00,
2013-03-18 08:31:00,61.0,59.3,30.02,NNE,15,1.0,1.0,94,0.00,,,0.00,WeatherCatV1.02B3,2013-03-18 12:31:00,
2013-03-18 08:36:00,61.3,59.6,30.02,North,7,0.0,1.0,94,0.00,,,0.00,WeatherCatV1.02B3,2013-03-18 12:36:00,
2013-03-18 08:41:00,61.6,59.9,30.01,North,7,0.0,0.0,94,0.00,,,0.00,WeatherCatV1.02B3,2013-03-18 12:41:00,
2013-03-18 08:46:00,62.0,60.2,30.01,WSW,246,0.0,2.0,94,0.00,,,0.00,WeatherCatV1.02B3,2013-03-18 12:46:00,
2013-03-18 08:51:00,62.9,60.8,30.01,SSW,205,0.0,1.0,93,0.00,,,0.00,WeatherCatV1.02B3,2013-03-18 12:51:00,
2013-03-18 08:56:00,63.7,61.3,30.01,ESE,118,0.0,5.0,92,0.00,,,0.00,WeatherCatV1.02B3,2013-03-18 12:56:00,
2013-03-18 09:01:00,64.3,61.6,30.01,NNW,347,0.0,1.0,91,0.00,,,0.00,WeatherCatV1.02B3,2013-03-18 13:01:00,
2013-03-18 09:06:00,65.0,61.7,30.01,NW,317,0.0,2.0,89,0.00,,,0.00,WeatherCatV1.02B3,2013-03-18 13:06:00,
2013-03-18 09:11:00,65.5,62.2,30.01,West,269,1.0,1.0,89,0.00,,,0.00,WeatherCatV1.02B3,2013-03-18 13:11:00,
2013-03-18 09:17:00,65.8,62.1,30.01,SE,130,0.0,8.0,88,0.00,,,0.00,WeatherCatV1.02B3,2013-03-18 13:17:00,
2013-03-18 09:22:00,66.4,62.7,30.01,SW,235,4.0,7.0,88,0.00,,,0.00,WeatherCatV1.02B3,2013-03-18 13:22:00,
2013-03-18 09:27:00,67.0,63.0,30.01,SW,218,3.0,4.0,87,0.00,,,0.00,WeatherCatV1.02B3,2013-03-18 13:27:00,
2013-03-18 09:32:00,67.6,63.3,30.01,SSW,200,1.0,3.0,86,0.00,,,0.00,WeatherCatV1.02B3,2013-03-18 13:32:00,
2013-03-18 09:37:00,68.0,63.3,30.02,SSW,192,2.0,4.0,85,0.00,,,0.00,WeatherCatV1.02B3,2013-03-18 13:37:00,
2013-03-18 09:41:00,68.3,63.3,30.02,SSW,212,0.0,2.0,84,0.00,,,0.00,WeatherCatV1.02B3,2013-03-18 13:41:00,
2013-03-18 09:46:00,68.5,63.5,30.02,SSW,193,0.0,2.0,84,0.00,,,0.00,WeatherCatV1.02B3,2013-03-18 13:46:00,
2013-03-18 09:51:00,68.6,63.9,30.03,SW,216,1.0,2.0,85,0.00,,,0.00,WeatherCatV1.02B3,2013-03-18 13:51:00,
2013-03-18 09:56:00,68.6,63.2,30.03,South,179,3.0,3.0,83,0.00,,,0.00,WeatherCatV1.02B3,2013-03-18 13:56:00,
2013-03-18 10:01:00,68.6,63.2,30.03,SW,220,0.0,5.0,83,0.00,,,0.00,WeatherCatV1.02B3,2013-03-18 14:01:00,
2013-03-18 10:06:00,68.7,63.7,30.03,NW,311,0.0,2.0,84,0.00,,,0.00,WeatherCatV1.02B3,2013-03-18 14:06:00,
2013-03-18 10:11:00,68.8,63.8,30.03,WNW,295,0.0,1.0,84,0.00,,,0.00,WeatherCatV1.02B3,2013-03-18 14:11:00,
2013-03-18 10:16:00,69.2,64.2,30.03,ESE,118,0.0,1.0,84,0.00,,,0.00,WeatherCatV1.02B3,2013-03-18 14:16:00,
2013-03-18 10:21:00,69.6,64.5,30.03,SSE,166,0.0,1.0,84,0.00,,,0.00,WeatherCatV1.02B3,2013-03-18 14:21:00,
2013-03-18 10:26:00,70.0,64.6,30.04,SW,230,1.0,2.0,83,0.00,,,0.00,WeatherCatV1.02B3,2013-03-18 14:26:00,
2013-03-18 10:31:00,70.3,64.9,30.03,SE,136,0.0,1.0,83,0.00,,,0.00,WeatherCatV1.02B3,2013-03-18 14:31:00,
2013-03-18 10:36:00,70.7,65.3,30.04,WSW,241,7.0,7.0,83,0.00,,,0.00,WeatherCatV1.02B3,2013-03-18 14:36:00,
2013-03-18 10:41:00,71.1,65.0,30.04,SSW,193,0.0,1.0,81,0.00,,,0.00,WeatherCatV1.02B3,2013-03-18 14:41:00,
2013-03-18 10:46:00,71.4,64.9,30.04,West,275,0.0,2.0,80,0.00,,,0.00,WeatherCatV1.02B3,2013-03-18 14:46:00,
2013-03-18 10:51:00,71.8,65.6,30.04,NE,40,0.0,2.0,81,0.00,,,0.00,WeatherCatV1.02B3,2013-03-18 14:51:00,
2013-03-18 10:56:00,72.3,65.4,30.04,SW,229,1.0,3.0,79,0.00,,,0.00,WeatherCatV1.02B3,2013-03-18 14:56:00,
2013-03-18 11:01:00,72.7,65.8,30.04,South,175,1.0,7.0,79,0.00,,,0.00,WeatherCatV1.02B3,2013-03-18 15:01:00,
2013-03-18 11:06:00,72.9,65.6,30.04,SSW,204,2.0,5.0,78,0.00,,,0.00,WeatherCatV1.02B3,2013-03-18 15:06:00,
2013-03-18 11:11:00,73.1,65.4,30.04,South,185,0.0,4.0,77,0.00,,,0.00,WeatherCatV1.02B3,2013-03-18 15:11:00,
2013-03-18 11:16:00,73.3,65.6,30.04,SSW,193,2.0,3.0,77,0.00,,,0.00,WeatherCatV1.02B3,2013-03-18 15:16:00,
2013-03-18 11:21:00,73.5,65.8,30.04,South,183,2.0,7.0,77,0.00,,,0.00,WeatherCatV1.02B3,2013-03-18 15:21:00,
2013-03-18 11:26:00,73.7,65.7,30.03,WNW,293,1.0,4.0,76,0.00,,,0.00,WeatherCatV1.02B3,2013-03-18 15:26:00,
2013-03-18 11:31:00,73.7,65.7,30.04,SW,230,0.0,1.0,76,0.00,,,0.00,WeatherCatV1.02B3,2013-03-18 15:31:00,
2013-03-18 11:36:00,73.7,65.7,30.03,South,170,0.0,1.0,76,0.00,,,0.00,WeatherCatV1.02B3,2013-03-18 15:36:00,
2013-03-18 11:41:00,73.8,66.1,30.03,South,191,2.0,2.0,77,0.00,,,0.00,WeatherCatV1.02B3,2013-03-18 15:41:00,
2013-03-18 11:46:00,73.9,65.5,30.02,SW,230,1.0,4.0,75,0.00,,,0.00,WeatherCatV1.02B3,2013-03-18 15:46:00,
2013-03-18 11:51:00,74.0,65.6,30.02,SSW,213,3.0,3.0,75,0.00,,,0.00,WeatherCatV1.02B3,2013-03-18 15:51:00,
2013-03-18 11:56:00,74.3,65.5,30.02,SW,221,1.0,4.0,74,0.00,,,0.00,WeatherCatV1.02B3,2013-03-18 15:56:00,
2013-03-18 12:01:00,74.2,65.4,30.02,SSW,209,0.0,3.0,74,0.00,,,0.00,WeatherCatV1.02B3,2013-03-18 16:01:00,
2013-03-18 12:06:00,74.2,65.8,30.02,East,99,0.0,2.0,75,0.00,,,0.00,WeatherCatV1.02B3,2013-03-18 16:06:00,
2013-03-18 12:11:00,74.5,66.0,30.02,East,94,0.0,1.0,75,0.00,,,0.00,WeatherCatV1.02B3,2013-03-18 16:11:00,
2013-03-18 12:16:00,74.7,65.8,30.02,NE,56,0.0,3.0,74,0.00,,,0.00,WeatherCatV1.02B3,2013-03-18 16:16:00,
2013-03-18 12:21:00,74.7,65.8,30.02,SSE,166,0.0,2.0,74,0.00,,,0.00,WeatherCatV1.02B3,2013-03-18 16:21:00,
2013-03-18 12:26:00,74.8,65.5,30.03,WSW,238,1.0,1.0,73,0.00,,,0.00,WeatherCatV1.02B3,2013-03-18 16:26:00,
2013-03-18 12:31:00,75.0,65.7,30.03,SW,229,1.0,6.0,73,0.00,,,0.00,WeatherCatV1.02B3,2013-03-18 16:31:00,
2013-03-18 12:36:00,75.1,65.4,30.03,SSW,196,0.0,6.0,72,0.00,,,0.00,WeatherCatV1.02B3,2013-03-18 16:36:00,
2013-03-18 12:41:00,74.9,65.2,30.04,SSW,196,1.0,3.0,72,0.00,,,0.00,WeatherCatV1.02B3,2013-03-18 16:41:00,
2013-03-18 12:46:00,74.8,65.5,30.03,South,191,0.0,9.0,73,0.00,,,0.00,WeatherCatV1.02B3,2013-03-18 16:46:00,
2013-03-18 12:51:00,74.9,65.6,30.03,South,176,1.0,8.0,73,0.00,,,0.00,WeatherCatV1.02B3,2013-03-18 16:51:00,
2013-03-18 12:56:00,74.9,66.0,30.03,SW,216,1.0,5.0,74,0.00,,,0.00,WeatherCatV1.02B3,2013-03-18 16:56:00,
2013-03-18 13:01:00,75.1,66.2,30.03,NW,316,1.0,4.0,74,0.00,,,0.00,WeatherCatV1.02B3,2013-03-18 17:01:00,
2013-03-18 13:06:00,75.1,66.2,30.03,SSW,206,2.0,2.0,74,0.00,,,0.00,WeatherCatV1.02B3,2013-03-18 17:06:00,
2013-03-18 13:11:00,75.3,66.0,30.03,SW,227,1.0,6.0,73,0.00,,,0.00,WeatherCatV1.02B3,2013-03-18 17:11:00,
2013-03-18 13:16:00,75.3,66.0,30.03,SW,229,1.0,3.0,73,0.00,,,0.00,WeatherCatV1.02B3,2013-03-18 17:16:00,
2013-03-18 13:21:00,75.5,66.6,30.03,SSW,208,2.0,3.0,74,0.00,,,0.00,WeatherCatV1.02B3,2013-03-18 17:21:00,
2013-03-18 13:26:00,75.5,65.8,30.02,South,178,1.0,2.0,72,0.00,,,0.00,WeatherCatV1.02B3,2013-03-18 17:26:00,
2013-03-18 13:31:00,75.4,66.1,30.01,SSW,193,0.0,1.0,73,0.00,,,0.00,WeatherCatV1.02B3,2013-03-18 17:31:00,
2013-03-18 13:36:00,75.3,66.0,30.01,SW,219,0.0,0.0,73,0.00,,,0.00,WeatherCatV1.02B3,2013-03-18 17:36:00,
2013-03-18 13:41:00,75.3,65.6,30.01,SSW,198,0.0,5.0,72,0.00,,,0.00,WeatherCatV1.02B3,2013-03-18 17:41:00,
2013-03-18 13:46:00,75.3,66.0,30.01,SSW,208,0.0,3.0,73,0.00,,,0.00,WeatherCatV1.02B3,2013-03-18 17:46:00,
2013-03-18 13:51:00,75.3,66.0,30.00,ENE,70,0.0,1.0,73,0.00,,,0.00,WeatherCatV1.02B3,2013-03-18 17:51:00,
2013-03-18 13:56:00,75.2,66.3,30.00,South,170,0.0,2.0,74,0.00,,,0.00,WeatherCatV1.02B3,2013-03-18 17:56:00,
2013-03-18 14:01:00,75.4,65.7,30.00,SW,217,7.0,8.0,72,0.00,,,0.00,WeatherCatV1.02B3,2013-03-18 18:01:00,
2013-03-18 14:06:00,75.4,65.7,30.00,South,181,0.0,6.0,72,0.00,,,0.00,WeatherCatV1.02B3,2013-03-18 18:06:00,
2013-03-18 14:11:00,75.4,66.1,30.00,SSW,208,0.0,3.0,73,0.00,,,0.00,WeatherCatV1.02B3,2013-03-18 18:11:00,
2013-03-18 14:16:00,75.5,65.8,30.01,SSW,206,3.0,6.0,72,0.00,,,0.00,WeatherCatV1.02B3,2013-03-18 18:16:00,
2013-03-18 14:21:00,75.5,65.8,30.00,South,182,0.0,4.0,72,0.00,,,0.00,WeatherCatV1.02B3,2013-03-18 18:21:00,
2013-03-18 14:26:00,75.5,66.2,29.99,SSW,207,1.0,3.0,73,0.00,,,0.00,WeatherCatV1.02B3,2013-03-18 18:26:00,
2013-03-18 14:31:00,75.6,66.3,29.98,SSW,198,0.0,1.0,73,0.00,,,0.00,WeatherCatV1.02B3,2013-03-18 18:31:00,
2013-03-18 14:36:00,75.6,65.9,29.98,SSW,203,2.0,2.0,72,0.00,,,0.00,WeatherCatV1.02B3,2013-03-18 18:36:00,
2013-03-18 14:41:00,75.7,66.4,29.98,SSW,193,1.0,2.0,73,0.00,,,0.00,WeatherCatV1.02B3,2013-03-18 18:41:00,
2013-03-18 14:46:00,75.6,66.3,29.96,SSW,204,0.0,2.0,73,0.00,,,0.00,WeatherCatV1.02B3,2013-03-18 18:46:00,
2013-03-18 14:51:00,75.5,66.2,29.96,SSW,194,1.0,8.0,73,0.00,,,0.00,WeatherCatV1.02B3,2013-03-18 18:51:00,
2013-03-18 14:56:00,75.5,66.2,29.94,SW,221,2.0,2.0,73,0.00,,,0.00,WeatherCatV1.02B3,2013-03-18 18:56:00,
2013-03-18 15:01:00,75.5,66.6,29.95,NW,304,3.0,3.0,74,0.00,,,0.00,WeatherCatV1.02B3,2013-03-18 19:01:00,
2013-03-18 15:06:00,75.5,66.6,29.96,WNW,283,1.0,3.0,74,0.00,,,0.00,WeatherCatV1.02B3,2013-03-18 19:06:00,
2013-03-18 15:11:00,75.6,66.3,29.96,WSW,243,0.0,2.0,73,0.00,,,0.00,WeatherCatV1.02B3,2013-03-18 19:11:00,
2013-03-18 15:16:00,75.6,66.7,29.96,SSW,208,0.0,3.0,74,0.00,,,0.00,WeatherCatV1.02B3,2013-03-18 19:16:00,
2013-03-18 15:21:00,75.5,66.6,29.95,SSW,206,0.0,1.0,74,0.00,,,0.00,WeatherCatV1.02B3,2013-03-18 19:21:00,
2013-03-18 15:26:00,75.4,66.5,29.95,SSW,206,0.0,1.0,74,0.00,,,0.00,WeatherCatV1.02B3,2013-03-18 19:26:00,
2013-03-18 15:31:00,75.3,66.4,29.95,SSW,209,0.0,1.0,74,0.00,,,0.00,WeatherCatV1.02B3,2013-03-18 19:31:00,
2013-03-18 15:36:00,75.0,66.5,29.94,SSW,208,0.0,4.0,75,0.00,,,0.00,WeatherCatV1.02B3,2013-03-18 19:36:00,
2013-03-18 15:41:00,74.9,66.8,29.94,SSW,208,1.0,3.0,76,0.00,,,0.00,WeatherCatV1.02B3,2013-03-18 19:41:00,
2013-03-18 15:46:00,74.9,66.8,29.94,SW,216,3.0,4.0,76,0.00,,,0.00,WeatherCatV1.02B3,2013-03-18 19:46:00,
2013-03-18 15:51:00,75.1,67.4,29.94,SSE,164,0.0,0.0,77,0.00,,,0.00,WeatherCatV1.02B3,2013-03-18 19:51:00,
2013-03-18 15:56:00,75.3,67.2,29.94,SW,216,2.0,4.0,76,0.00,,,0.00,WeatherCatV1.02B3,2013-03-18 19:56:00,
2013-03-18 16:01:00,75.5,67.8,29.94,SSW,204,6.0,9.0,77,0.00,,,0.00,WeatherCatV1.02B3,2013-03-18 20:01:00,
2013-03-18 16:06:00,75.3,68.3,29.93,SW,225,5.0,6.0,79,0.00,,,0.00,WeatherCatV1.02B3,2013-03-18 20:06:00,
2013-03-18 16:11:00,75.1,67.8,29.94,SW,219,6.0,7.0,78,0.00,,,0.00,WeatherCatV1.02B3,2013-03-18 20:11:00,
2013-03-18 16:16:00,74.8,67.5,29.94,South,170,2.0,4.0,78,0.00,,,0.00,WeatherCatV1.02B3,2013-03-18 20:16:00,
2013-03-18 16:21:00,74.5,67.2,29.94,SSW,206,2.0,10.0,78,0.00,,,0.00,WeatherCatV1.02B3,2013-03-18 20:21:00,
2013-03-18 16:26:00,74.3,67.4,29.94,SSW,204,1.0,8.0,79,0.00,,,0.00,WeatherCatV1.02B3,2013-03-18 20:26:00,
2013-03-18 16:31:00,74.3,67.4,29.94,SW,220,2.0,5.0,79,0.00,,,0.00,WeatherCatV1.02B3,2013-03-18 20:31:00,
2013-03-18 16:36:00,74.2,67.3,29.93,South,187,0.0,2.0,79,0.00,,,0.00,WeatherCatV1.02B3,2013-03-18 20:36:00,
2013-03-18 16:41:00,74.1,67.2,29.93,SW,225,2.0,3.0,79,0.00,,,0.00,WeatherCatV1.02B3,2013-03-18 20:41:00,
2013-03-18 16:46:00,74.0,67.4,29.93,South,179,1.0,3.0,80,0.00,,,0.00,WeatherCatV1.02B3,2013-03-18 20:46:00,
2013-03-18 16:51:00,73.9,67.3,29.93,SSW,205,1.0,2.0,80,0.00,,,0.00,WeatherCatV1.02B3,2013-03-18 20:51:00,
2013-03-18 16:56:00,73.9,67.3,29.93,SW,218,3.0,3.0,80,0.00,,,0.00,WeatherCatV1.02B3,2013-03-18 20:56:00,
2013-03-18 17:01:00,73.9,67.3,29.93,SE,145,2.0,4.0,80,0.00,,,0.00,WeatherCatV1.02B3,2013-03-18 21:01:00,
2013-03-18 17:06:00,73.8,67.6,29.93,NE,50,0.0,2.0,81,0.00,,,0.00,WeatherCatV1.02B3,2013-03-18 21:06:00,
2013-03-18 17:11:00,73.7,67.1,29.94,SW,222,3.0,6.0,80,0.00,,,0.00,WeatherCatV1.02B3,2013-03-18 21:11:00,
2013-03-18 17:16:00,73.7,67.1,29.94,SSW,211,2.0,4.0,80,0.00,,,0.00,WeatherCatV1.02B3,2013-03-18 21:16:00,
2013-03-18 17:21:00,73.6,67.4,29.94,WSW,237,4.0,4.0,81,0.00,,,0.00,WeatherCatV1.02B3,2013-03-18 21:21:00,
2013-03-18 17:26:00,73.5,67.3,29.94,South,187,0.0,0.0,81,0.00,,,0.00,WeatherCatV1.02B3,2013-03-18 21:26:00,
2013-03-18 17:31:00,73.5,67.7,29.93,SSW,212,1.0,3.0,82,0.00,,,0.00,WeatherCatV1.02B3,2013-03-18 21:31:00,
2013-03-18 17:36:00,73.7,67.5,29.93,SW,222,3.0,6.0,81,0.00,,,0.00,WeatherCatV1.02B3,2013-03-18 21:36:00,
2013-03-18 17:41:00,73.9,67.3,29.93,SSW,210,1.0,4.0,80,0.00,,,0.00,WeatherCatV1.02B3,2013-03-18 21:41:00,
2013-03-18 17:46:00,74.0,67.4,29.93,SW,233,1.0,2.0,80,0.00,,,0.00,WeatherCatV1.02B3,2013-03-18 21:46:00,
2013-03-18 17:51:00,74.1,67.5,29.93,SSW,210,5.0,5.0,80,0.00,,,0.00,WeatherCatV1.02B3,2013-03-18 21:51:00,
2013-03-18 17:56:00,74.1,67.2,29.92,SW,216,2.0,7.0,79,0.00,,,0.00,WeatherCatV1.02B3,2013-03-18 21:56:00,
2013-03-18 18:01:00,74.0,67.4,29.92,SSW,200,0.0,2.0,80,0.00,,,0.00,WeatherCatV1.02B3,2013-03-18 22:01:00,
2013-03-18 18:06:00,73.9,67.0,29.92,SW,220,1.0,4.0,79,0.00,,,0.00,WeatherCatV1.02B3,2013-03-18 22:06:00,
2013-03-18 18:11:00,73.7,67.1,29.91,South,182,4.0,9.0,80,0.00,,,0.00,WeatherCatV1.02B3,2013-03-18 22:11:00,
2013-03-18 18:16:00,73.5,66.6,29.91,SSE,163,1.0,4.0,79,0.00,,,0.00,WeatherCatV1.02B3,2013-03-18 22:16:00,
2013-03-18 18:21:00,73.4,66.8,29.91,SSW,195,2.0,3.0,80,0.00,,,0.00,WeatherCatV1.02B3,2013-03-18 22:21:00,
2013-03-18 18:26:00,73.3,66.4,29.92,SSW,203,3.0,5.0,79,0.00,,,0.00,WeatherCatV1.02B3,2013-03-18 22:26:00,
2013-03-18 18:31:00,73.2,66.6,29.92,SSW,211,0.0,4.0,80,0.00,,,0.00,WeatherCatV1.02B3,2013-03-18 22:31:00,
2013-03-18 18:36:00,73.0,66.8,29.92,SSW,202,1.0,3.0,81,0.00,,,0.00,WeatherCatV1.02B3,2013-03-18 22:36:00,
2013-03-18 18:41:00,72.8,66.6,29.92,SW,220,3.0,7.0,81,0.00,,,0.00,WeatherCatV1.02B3,2013-03-18 22:41:00,
2013-03-18 18:46:00,72.7,66.5,29.92,SW,220,3.0,4.0,81,0.00,,,0.00,WeatherCatV1.02B3,2013-03-18 22:46:00,
2013-03-18 18:51:00,72.6,66.8,29.93,SSW,198,2.0,2.0,82,0.00,,,0.00,WeatherCatV1.02B3,2013-03-18 22:51:00,
2013-03-18 18:56:00,72.4,66.6,29.93,SSW,208,4.0,5.0,82,0.00,,,0.00,WeatherCatV1.02B3,2013-03-18 22:56:00,
2013-03-18 19:02:00,72.3,66.5,29.93,SSW,202,3.0,5.0,82,0.00,,,0.00,WeatherCatV1.02B3,2013-03-18 23:02:00,
2013-03-18 19:07:00,72.2,66.7,29.93,SW,215,1.0,3.0,83,0.00,,,0.00,WeatherCatV1.02B3,2013-03-18 23:07:00,
2013-03-18 19:12:00,72.1,66.6,29.94,West,277,1.0,3.0,83,0.00,,,0.00,WeatherCatV1.02B3,2013-03-18 23:12:00,
2013-03-18 19:17:00,71.9,66.4,29.94,SSW,210,2.0,4.0,83,0.00,,,0.00,WeatherCatV1.02B3,2013-03-18 23:17:00,
2013-03-18 19:22:00,71.7,66.2,29.94,SSW,212,0.0,4.0,83,0.00,,,0.00,WeatherCatV1.02B3,2013-03-18 23:22:00,
2013-03-18 19:27:00,71.5,66.1,29.94,SW,214,1.0,3.0,83,0.00,,,0.00,WeatherCatV1.02B3,2013-03-18 23:27:00,
2013-03-18 19:32:00,71.3,66.2,29.94,SSW,195,3.0,3.0,84,0.00,,,0.00,WeatherCatV1.02B3,2013-03-18 23:32:00,
2013-03-18 19:37:00,71.2,66.1,29.95,SSW,198,3.0,6.0,84,0.00,,,0.00,WeatherCatV1.02B3,2013-03-18 23:37:00,
2013-03-18 19:42:00,71.1,66.0,29.95,SSW,195,2.0,6.0,84,0.00,,,0.00,WeatherCatV1.02B3,2013-03-18 23:42:00,
2013-03-18 19:47:00,70.9,65.8,29.95,SW,216,4.0,5.0,84,0.00,,,0.00,WeatherCatV1.02B3,2013-03-18 23:47:00,
2013-03-18 19:52:00,70.7,66.0,29.95,SSW,206,1.0,6.0,85,0.00,,,0.00,WeatherCatV1.02B3,2013-03-18 23:52:00,
2013-03-18 19:57:00,70.5,66.1,29.95,SSW,204,3.0,3.0,86,0.00,,,0.00,WeatherCatV1.02B3,2013-03-18 23:57:00,
2013-03-18 20:02:00,70.4,66.0,29.95,SW,222,4.0,4.0,86,0.00,,,0.00,WeatherCatV1.02B3,2013-03-19 00:02:00,
2013-03-18 20:07:00,70.3,66.2,29.95,SW,229,1.0,4.0,87,0.00,,,0.00,WeatherCatV1.02B3,2013-03-19 00:07:00,
2013-03-18 20:12:00,70.2,66.1,29.95,SSW,204,0.0,2.0,87,0.00,,,0.00,WeatherCatV1.02B3,2013-03-19 00:12:00,
2013-03-18 20:17:00,70.1,66.0,29.95,SW,214,2.0,2.0,87,0.00,,,0.00,WeatherCatV1.02B3,2013-03-19 00:17:00,
2013-03-18 20:22:00,70.1,66.4,29.95,SSW,204,1.0,3.0,88,0.00,,,0.00,WeatherCatV1.02B3,2013-03-19 00:22:00,
2013-03-18 20:27:00,69.9,66.2,29.94,SSW,203,0.0,2.0,88,0.00,,,0.00,WeatherCatV1.02B3,2013-03-19 00:27:00,
2013-03-18 20:32:00,69.7,66.3,29.94,SSW,210,3.0,4.0,89,0.00,,,0.00,WeatherCatV1.02B3,2013-03-19 00:32:00,
2013-03-18 20:37:00,69.6,66.2,29.94,SSW,212,6.0,6.0,89,0.00,,,0.00,WeatherCatV1.02B3,2013-03-19 00:37:00,
2013-03-18 20:42:00,69.4,66.3,29.94,South,177,0.0,3.0,90,0.00,,,0.00,WeatherCatV1.02B3,2013-03-19 00:42:00,
2013-03-18 20:47:00,69.3,66.2,29.93,SSW,204,0.0,3.0,90,0.00,,,0.00,WeatherCatV1.02B3,2013-03-19 00:47:00,
2013-03-18 20:52:00,69.2,66.1,29.93,SSW,204,1.0,3.0,90,0.00,,,0.00,WeatherCatV1.02B3,2013-03-19 00:52:00,
2013-03-18 20:57:00,69.0,66.3,29.93,South,189,3.0,7.0,91,0.00,,,0.00,WeatherCatV1.02B3,2013-03-19 00:57:00,
2013-03-18 21:02:00,69.0,66.3,29.93,SW,226,7.0,9.0,91,0.00,,,0.00,WeatherCatV1.02B3,2013-03-19 01:02:00,
2013-03-18 21:07:00,68.8,66.1,29.92,SSW,204,2.0,7.0,91,0.00,,,0.00,WeatherCatV1.02B3,2013-03-19 01:07:00,
2013-03-18 21:12:00,68.6,65.5,29.91,SSW,200,5.0,6.0,90,0.00,,,0.00,WeatherCatV1.02B3,2013-03-19 01:12:00,
2013-03-18 21:17:00,68.3,65.2,29.88,SSW,201,5.0,8.0,90,0.00,,,0.00,WeatherCatV1.02B3,2013-03-19 01:17:00,
2013-03-18 21:22:00,68.1,65.0,29.85,SSE,147,3.0,8.0,90,0.00,,,0.00,WeatherCatV1.02B3,2013-03-19 01:22:00,
2013-03-18 21:27:00,67.9,64.9,29.86,ESE,110,2.0,9.0,90,0.00,,,0.00,WeatherCatV1.02B3,2013-03-19 01:27:00,
2013-03-18 21:32:00,67.9,64.9,29.91,WSW,250,3.0,4.0,90,0.00,,,0.00,WeatherCatV1.02B3,2013-03-19 01:32:00,
2013-03-18 21:37:00,67.9,64.9,29.93,WNW,287,6.0,6.0,90,0.00,,,0.00,WeatherCatV1.02B3,2013-03-19 01:37:00,
2013-03-18 21:42:00,68.0,65.0,29.93,West,265,1.0,2.0,90,0.00,,,0.00,WeatherCatV1.02B3,2013-03-19 01:42:00,
2013-03-18 21:47:00,68.1,65.0,29.94,SSW,209,1.0,2.0,90,0.00,,,0.00,WeatherCatV1.02B3,2013-03-19 01:47:00,
2013-03-18 21:52:00,68.1,65.0,29.96,WNW,291,1.0,6.0,90,0.00,,,0.00,WeatherCatV1.02B3,2013-03-19 01:52:00,
2013-03-18 21:57:00,68.1,65.0,29.96,WSW,255,0.0,2.0,90,0.00,,,0.00,WeatherCatV1.02B3,2013-03-19 01:57:00,
2013-03-18 22:02:00,68.2,65.1,29.96,WNW,294,4.0,5.0,90,0.00,,,0.00,WeatherCatV1.02B3,2013-03-19 02:02:00,
2013-03-18 22:07:00,68.3,65.2,29.96,WNW,285,1.0,2.0,90,0.00,,,0.00,WeatherCatV1.02B3,2013-03-19 02:07:00,
2013-03-18 22:12:00,68.4,65.3,29.96,SSW,210,1.0,2.0,90,0.00,,,0.00,WeatherCatV1.02B3,2013-03-19 02:12:00,
2013-03-18 22:17:00,68.4,65.0,29.96,SSW,205,5.0,5.0,89,0.00,,,0.00,WeatherCatV1.02B3,2013-03-19 02:17:00,
2013-03-18 22:22:00,68.4,65.0,29.95,SSW,210,2.0,11.0,89,0.00,,,0.00,WeatherCatV1.02B3,2013-03-19 02:22:00,
2013-03-18 22:27:00,68.4,65.0,29.95,South,186,3.0,8.0,89,0.00,,,0.00,WeatherCatV1.02B3,2013-03-19 02:27:00,
2013-03-18 22:32:00,68.4,65.0,29.94,SSW,193,0.0,2.0,89,0.00,,,0.00,WeatherCatV1.02B3,2013-03-19 02:32:00,
2013-03-18 22:37:00,68.3,64.9,29.94,SSW,200,2.0,6.0,89,0.00,,,0.00,WeatherCatV1.02B3,2013-03-19 02:37:00,
2013-03-18 22:42:00,68.2,64.8,29.93,SE,139,0.0,2.0,89,0.00,,,0.00,WeatherCatV1.02B3,2013-03-19 02:42:00,
2013-03-18 22:47:00,68.1,64.7,29.93,South,188,2.0,7.0,89,0.00,,,0.00,WeatherCatV1.02B3,2013-03-19 02:47:00,
2013-03-18 22:52:00,68.0,64.6,29.93,South,185,0.0,4.0,89,0.00,,,0.00,WeatherCatV1.02B3,2013-03-19 02:52:00,
2013-03-18 22:57:00,68.0,65.0,29.93,South,189,0.0,6.0,90,0.00,,,0.00,WeatherCatV1.02B3,2013-03-19 02:57:00,
2013-03-18 23:02:00,67.9,64.9,29.93,SSE,155,3.0,6.0,90,0.00,,,0.00,WeatherCatV1.02B3,2013-03-19 03:02:00,
2013-03-18 23:07:00,67.8,64.8,29.93,SSW,212,2.0,6.0,90,0.00,,,0.00,WeatherCatV1.02B3,2013-03-19 03:07:00,
2013-03-18 23:12:00,67.7,64.7,29.92,SE,144,3.0,4.0,90,0.00,,,0.00,WeatherCatV1.02B3,2013-03-19 03:12:00,
2013-03-18 23:17:00,67.6,64.6,29.92,SW,227,5.0,9.0,90,0.00,,,0.00,WeatherCatV1.02B3,2013-03-19 03:17:00,
2013-03-18 23:22:00,67.6,64.9,29.92,SSW,203,2.0,5.0,91,0.00,,,0.00,WeatherCatV1.02B3,2013-03-19 03:22:00,
2013-03-18 23:27:00,67.5,64.8,29.92,SW,221,4.0,5.0,91,0.00,,,0.00,WeatherCatV1.02B3,2013-03-19 03:27:00,
2013-03-18 23:32:00,67.4,64.7,29.93,SSW,205,1.0,1.0,91,0.00,,,0.00,WeatherCatV1.02B3,2013-03-19 03:32:00,
2013-03-18 23:37:00,67.3,64.6,29.92,SSW,202,2.0,5.0,91,0.00,,,0.00,WeatherCatV1.02B3,2013-03-19 03:37:00,
2013-03-18 23:42:00,67.2,64.5,29.92,SW,216,1.0,2.0,91,0.00,,,0.00,WeatherCatV1.02B3,2013-03-19 03:42:00,
2013-03-18 23:47:00,67.2,64.5,29.92,West,262,1.0,2.0,91,0.00,,,0.00,WeatherCatV1.02B3,2013-03-19 03:47:00,
2013-03-18 23:52:00,67.1,64.7,29.92,SSW,210,0.0,0.0,92,0.00,,,0.00,WeatherCatV1.02B3,2013-03-19 03:52:00,
2013-03-18 23:57:00,66.9,64.5,29.92,SSW,210,0.0,0.0,92,0.00,,,0.00,WeatherCatV1.02B3,2013-03-19 03:57:00,